createdAt,value
2022-08-03T00:01:55.137Z,63.69
2022-08-03T00:04:22.990Z,63.82
2022-08-03T00:07:02.056Z,63.98
2022-08-03T00:09:35.444Z,63.99
2022-08-03T00:12:04.539Z,64.08
2022-08-03T00:14:34.375Z,64.15
2022-08-03T00:17:02.931Z,64.23
2022-08-03T00:19:31.485Z,64.21
2022-08-03T00:22:00.436Z,64.29
2022-08-03T00:24:28.602Z,64.35
2022-08-03T00:26:57.777Z,64.41
2022-08-03T00:29:26.686Z,64.42
2022-08-03T00:31:59.478Z,64.46
2022-08-03T00:34:36.702Z,64.60
2022-08-03T00:37:18.204Z,64.65
2022-08-03T00:39:48.210Z,64.87
2022-08-03T00:42:16.572Z,64.93
2022-08-03T00:44:45.459Z,65.04
2022-08-03T00:47:13.466Z,65.14
2022-08-03T00:49:41.861Z,65.15
2022-08-03T00:52:11.048Z,65.27
2022-08-03T00:54:39.398Z,65.33
2022-08-03T00:57:07.583Z,65.46
2022-08-03T00:59:37.833Z,65.68
2022-08-03T01:02:06.621Z,65.80
2022-08-03T01:04:35.086Z,65.66
2022-08-03T01:07:16.911Z,65.84
2022-08-03T01:09:55.662Z,65.87
2022-08-03T01:12:34.682Z,65.92
2022-08-03T01:15:10.673Z,66.07
2022-08-03T01:17:50.128Z,66.10
2022-08-03T01:20:20.520Z,66.27
2022-08-03T01:23:08.334Z,66.38
2022-08-03T01:25:54.248Z,66.47
2022-08-03T01:28:37.968Z,66.46
2022-08-03T01:31:08.603Z,66.49
2022-08-03T01:33:40.249Z,66.55
2022-08-03T01:36:13.588Z,66.74
2022-08-03T01:38:44.545Z,66.72
2022-08-03T01:41:18.498Z,66.88
2022-08-03T01:44:27.892Z,66.94
2022-08-03T01:46:40.000Z,67.03
2022-08-03T01:49:12.786Z,66.99
2022-08-03T01:51:58.624Z,67.10
2022-08-03T01:54:34.013Z,67.11
2022-08-03T01:57:05.230Z,67.10
2022-08-03T01:59:37.429Z,67.31
2022-08-03T02:02:32.171Z,67.32
2022-08-03T02:04:58.921Z,67.38
2022-08-03T02:07:29.215Z,67.51
2022-08-03T02:09:58.236Z,67.63
2022-08-03T02:12:28.869Z,67.62
2022-08-03T02:15:00.018Z,67.55
2022-08-03T02:17:39.486Z,67.77
2022-08-03T02:20:11.830Z,67.74
2022-08-03T02:22:42.051Z,67.82
2022-08-03T02:25:12.638Z,67.84
2022-08-03T02:27:51.573Z,67.91
2022-08-03T02:30:22.043Z,68.05
2022-08-03T02:32:56.681Z,68.07
2022-08-03T02:35:28.179Z,68.22
2022-08-03T02:38:03.818Z,68.22
2022-08-03T02:40:37.371Z,68.30
2022-08-03T02:43:12.087Z,68.47
2022-08-03T02:45:46.273Z,68.48
2022-08-03T02:48:18.337Z,68.49
2022-08-03T02:50:47.279Z,68.56
2022-08-03T02:53:17.234Z,68.44
2022-08-03T02:55:48.334Z,68.67
2022-08-03T02:58:20.525Z,68.71
2022-08-03T03:00:51.455Z,68.70
2022-08-03T03:03:20.689Z,68.87
2022-08-03T03:05:54.626Z,68.97
2022-08-03T03:08:28.945Z,69.14
2022-08-03T03:10:59.502Z,69.41
2022-08-03T03:13:28.418Z,69.59
2022-08-03T03:15:59.470Z,69.68
2022-08-03T03:18:29.154Z,69.61
2022-08-03T03:20:58.677Z,69.53
2022-08-03T03:23:28.394Z,69.50
2022-08-03T03:25:58.269Z,69.41
2022-08-03T03:28:26.725Z,69.48
2022-08-03T03:30:56.092Z,69.57
2022-08-03T03:33:24.338Z,69.43
2022-08-03T03:35:52.573Z,69.38
2022-08-03T03:38:20.687Z,69.48
2022-08-03T03:40:49.931Z,69.48
2022-08-03T03:43:18.815Z,69.45
2022-08-03T03:45:48.747Z,69.36
2022-08-03T03:48:17.573Z,69.40
2022-08-03T03:50:46.791Z,69.53
2022-08-03T03:53:15.942Z,69.53
2022-08-03T03:55:59.653Z,69.66
2022-08-03T03:58:32.857Z,69.66
2022-08-03T04:01:01.489Z,69.70
2022-08-03T04:03:33.193Z,69.67
2022-08-03T04:06:19.246Z,69.66
2022-08-03T04:09:13.716Z,69.64
2022-08-03T04:11:48.603Z,69.66
2022-08-03T04:14:20.625Z,69.73
2022-08-03T04:16:51.572Z,69.72
2022-08-03T04:19:32.123Z,69.74
2022-08-03T04:22:05.570Z,69.78
2022-08-03T04:24:37.564Z,69.83
2022-08-03T04:27:09.479Z,69.87
2022-08-03T04:29:48.265Z,69.86
2022-08-03T04:32:19.191Z,69.83
2022-08-03T04:34:48.105Z,69.80
2022-08-03T04:37:25.489Z,69.97
2022-08-03T04:39:57.729Z,69.98
2022-08-03T04:42:27.703Z,70.07
2022-08-03T04:45:01.443Z,70.16
2022-08-03T04:47:34.252Z,70.27
2022-08-03T04:50:03.882Z,70.19
2022-08-03T04:52:32.840Z,70.22
2022-08-03T04:55:01.358Z,70.30
2022-08-03T04:57:29.362Z,70.46
2022-08-03T05:00:02.759Z,70.52
2022-08-03T05:02:32.170Z,70.49
2022-08-03T05:05:00.888Z,70.72
2022-08-03T05:07:36.337Z,70.90
2022-08-03T05:10:15.877Z,71.02
2022-08-03T05:12:46.813Z,71.05
2022-08-03T05:15:15.205Z,70.97
2022-08-03T05:17:45.100Z,70.81
2022-08-03T05:20:13.283Z,70.78
2022-08-03T05:22:46.526Z,70.68
2022-08-03T05:25:19.796Z,70.56
2022-08-03T05:27:49.958Z,70.53
2022-08-03T05:30:30.376Z,70.42
2022-08-03T05:33:03.050Z,70.35
2022-08-03T05:36:02.062Z,70.30
2022-08-03T05:38:28.259Z,70.14
2022-08-03T05:41:22.540Z,69.91
2022-08-03T05:43:48.891Z,69.89
2022-08-03T05:46:17.658Z,69.76
2022-08-03T05:48:45.617Z,69.59
2022-08-03T05:51:14.793Z,69.44
2022-08-03T05:53:43.374Z,69.03
2022-08-03T05:56:14.991Z,68.58
2022-08-03T05:58:45.673Z,68.49
2022-08-03T06:01:13.874Z,68.31
2022-08-03T06:03:43.926Z,68.12
2022-08-03T06:06:12.029Z,67.84
2022-08-03T06:08:40.157Z,67.62
2022-08-03T06:11:07.857Z,67.52
2022-08-03T06:13:35.666Z,67.34
2022-08-03T06:16:03.482Z,67.24
2022-08-03T06:18:31.342Z,66.99
2022-08-03T06:21:09.458Z,66.86
2022-08-03T06:23:52.603Z,66.63
2022-08-03T06:26:21.201Z,66.48
2022-08-03T06:28:52.934Z,66.39
2022-08-03T06:31:23.297Z,66.08
2022-08-03T06:34:30.907Z,65.91
2022-08-03T06:36:39.393Z,65.70
2022-08-03T06:39:08.238Z,65.50
2022-08-03T06:41:38.076Z,65.39
2022-08-03T06:44:12.667Z,64.89
2022-08-03T06:46:40.467Z,64.68
2022-08-03T06:49:08.341Z,64.55
2022-08-03T06:52:03.377Z,64.34
2022-08-03T06:54:24.131Z,64.06
2022-08-03T06:56:51.853Z,64.07
2022-08-03T07:00:10.698Z,63.95
2022-08-03T07:02:09.068Z,63.79
2022-08-03T07:04:39.441Z,63.84
2022-08-03T07:07:07.014Z,63.45
2022-08-03T07:09:34.482Z,63.22
2022-08-03T07:12:03.624Z,62.83
2022-08-03T07:14:31.242Z,62.36
2022-08-03T07:16:58.796Z,62.48
2022-08-03T07:19:26.357Z,62.23
2022-08-03T07:21:54.067Z,62.16
2022-08-03T07:24:25.914Z,61.76
2022-08-03T07:26:56.141Z,61.31
2022-08-03T07:29:23.701Z,61.10
2022-08-03T07:31:51.403Z,60.62
2022-08-03T07:34:18.907Z,60.59
2022-08-03T07:36:46.486Z,60.40
2022-08-03T07:39:16.684Z,60.29
2022-08-03T07:41:46.813Z,59.76
2022-08-03T07:44:14.277Z,59.67
2022-08-03T07:46:41.775Z,59.29
2022-08-03T07:49:09.470Z,59.16
2022-08-03T07:51:37.257Z,58.89
2022-08-03T07:54:05.245Z,58.57
2022-08-03T07:56:32.881Z,58.58
2022-08-03T07:59:02.219Z,58.34
2022-08-03T08:01:32.056Z,58.20
2022-08-03T08:03:59.803Z,57.83
2022-08-03T08:06:27.339Z,57.45
2022-08-03T08:08:58.778Z,56.96
2022-08-03T08:11:26.293Z,56.60
2022-08-03T08:13:53.842Z,56.42
2022-08-03T08:16:21.398Z,56.17
2022-08-03T08:18:48.955Z,56.04
2022-08-03T08:21:16.507Z,55.61
2022-08-03T08:23:47.084Z,55.42
2022-08-03T08:26:23.976Z,55.24
2022-08-03T08:28:52.285Z,54.98
2022-08-03T08:31:20.239Z,54.70
2022-08-03T08:34:03.598Z,54.38
2022-08-03T08:36:33.360Z,53.89
2022-08-03T08:39:00.907Z,53.74
2022-08-03T08:41:32.259Z,53.74
2022-08-03T08:44:00.469Z,53.39
2022-08-03T08:46:32.235Z,53.11
2022-08-03T08:49:04.701Z,52.96
2022-08-03T08:51:59.657Z,52.81
2022-08-03T08:54:28.892Z,52.28
2022-08-03T08:57:01.185Z,51.92
2022-08-03T08:59:48.503Z,51.65
2022-08-03T09:02:16.914Z,51.10
2022-08-03T09:04:48.150Z,50.87
2022-08-03T09:07:20.433Z,50.84
2022-08-03T09:10:11.496Z,50.83
2022-08-03T09:12:42.700Z,50.54
2022-08-03T09:15:23.047Z,50.22
2022-08-03T09:17:53.173Z,49.94
2022-08-03T09:20:22.819Z,49.63
2022-08-03T09:22:54.901Z,48.83
2022-08-03T09:25:28.906Z,48.60
2022-08-03T09:28:05.553Z,48.48
2022-08-03T09:30:35.253Z,48.40
2022-08-03T09:33:04.934Z,48.18
2022-08-03T09:38:23.743Z,47.87
2022-08-03T09:40:53.784Z,47.67
2022-08-03T09:43:26.896Z,47.26
2022-08-03T09:46:03.700Z,47.20
2022-08-03T09:48:34.049Z,47.02
2022-08-03T09:51:12.498Z,47.01
2022-08-03T09:53:57.300Z,46.71
2022-08-03T09:56:39.250Z,46.43
2022-08-03T09:59:09.440Z,46.51
2022-08-03T10:01:40.899Z,46.47
2022-08-03T10:04:14.549Z,46.14
2022-08-03T10:06:42.856Z,45.96
2022-08-03T10:09:13.305Z,45.85
2022-08-03T10:11:42.854Z,45.81
2022-08-03T10:14:18.198Z,45.52
2022-08-03T10:16:47.279Z,45.51
2022-08-03T10:19:15.758Z,45.18
2022-08-03T10:21:49.274Z,45.01
2022-08-03T10:24:23.898Z,45.25
2022-08-03T10:26:53.436Z,44.83
2022-08-03T10:29:24.685Z,44.76
2022-08-03T10:31:58.644Z,44.51
2022-08-03T10:34:39.238Z,44.52
2022-08-03T10:37:15.041Z,43.84
2022-08-03T10:39:53.116Z,44.19
2022-08-03T10:42:26.418Z,43.77
2022-08-03T10:45:00.581Z,43.69
2022-08-03T10:47:29.613Z,44.13
2022-08-03T10:49:58.380Z,44.10
2022-08-03T10:52:33.779Z,43.71
2022-08-03T10:55:50.407Z,43.53
2022-08-03T10:58:57.381Z,43.11
2022-08-03T11:01:58.634Z,42.83
2022-08-03T11:04:29.463Z,42.45
2022-08-03T11:07:21.886Z,42.15
2022-08-03T11:09:51.838Z,42.30
2022-08-03T11:12:30.892Z,42.22
2022-08-03T11:15:01.495Z,42.45
2022-08-03T11:17:29.213Z,42.37
2022-08-03T11:19:58.511Z,41.85
2022-08-03T11:22:46.502Z,41.47
2022-08-03T11:25:53.431Z,40.63
2022-08-03T11:28:34.574Z,40.45
2022-08-03T11:31:49.458Z,39.90
2022-08-03T11:34:18.213Z,39.15
2022-08-03T11:37:22.136Z,39.25
2022-08-03T11:39:54.325Z,38.91
2022-08-03T11:42:40.719Z,38.60
2022-08-03T11:45:09.772Z,38.62
2022-08-03T11:47:50.725Z,38.80
2022-08-03T11:50:20.558Z,38.42
2022-08-03T11:52:49.047Z,39.15
2022-08-03T11:55:19.748Z,38.76
2022-08-03T11:59:01.191Z,38.98
2022-08-03T12:00:35.451Z,38.60
2022-08-03T12:03:05.938Z,38.49
2022-08-03T12:05:51.253Z,38.00
2022-08-03T12:08:31.535Z,37.83
2022-08-03T12:11:00.914Z,37.35
2022-08-03T12:14:45.024Z,36.75
2022-08-03T12:16:27.846Z,36.34
2022-08-03T12:18:57.149Z,36.11
2022-08-03T12:21:24.755Z,35.96
2022-08-03T12:23:59.378Z,36.22
2022-08-03T12:26:27.739Z,36.50
2022-08-03T12:28:55.269Z,36.16
2022-08-03T12:31:22.985Z,35.73
2022-08-03T12:33:59.555Z,35.29
2022-08-03T12:36:29.042Z,34.88
2022-08-03T12:38:58.629Z,34.84
2022-08-03T12:41:32.066Z,34.56
2022-08-03T12:44:00.651Z,34.36
2022-08-03T12:46:33.888Z,34.53
2022-08-03T12:49:10.255Z,35.22
2022-08-03T12:51:55.337Z,35.40
2022-08-03T12:54:25.462Z,35.06
2022-08-03T12:57:00.465Z,34.65
2022-08-03T12:59:35.030Z,34.38
2022-08-03T13:02:04.712Z,34.23
2022-08-03T13:04:37.409Z,33.91
2022-08-03T13:07:14.606Z,33.75
2022-08-03T13:09:44.216Z,33.61
2022-08-03T13:12:13.724Z,32.94
2022-08-03T13:14:42.214Z,32.27
2022-08-03T13:17:09.909Z,32.04
2022-08-03T13:19:38.986Z,31.98
2022-08-03T13:22:13.538Z,32.01
2022-08-03T13:24:42.227Z,32.43
2022-08-03T13:28:00.960Z,32.11
2022-08-03T13:29:58.760Z,32.13
2022-08-03T13:32:26.562Z,31.89
2022-08-03T13:34:54.138Z,32.01
2022-08-03T13:37:22.107Z,32.11
2022-08-03T13:39:58.807Z,32.10
2022-08-03T13:42:28.933Z,32.34
2022-08-03T13:44:56.521Z,31.86
2022-08-03T13:47:24.340Z,31.84
2022-08-03T13:49:59.906Z,31.47
2022-08-03T13:52:34.415Z,30.78
2022-08-03T13:55:03.735Z,30.60
2022-08-03T13:58:02.972Z,30.76
2022-08-03T14:00:26.285Z,30.99
2022-08-03T14:02:59.937Z,31.13
2022-08-03T14:05:32.270Z,31.25
2022-08-03T14:08:04.737Z,30.76
2022-08-03T14:10:34.049Z,30.76
2022-08-03T14:13:01.925Z,30.07
2022-08-03T14:15:29.618Z,29.31
2022-08-03T14:17:58.524Z,29.27
2022-08-03T14:20:38.717Z,29.74
2022-08-03T14:23:14.789Z,29.61
2022-08-03T14:25:43.497Z,29.38
2022-08-03T14:28:19.202Z,29.10
2022-08-03T14:30:47.892Z,29.04
2022-08-03T14:33:15.493Z,28.74
2022-08-03T14:35:43.416Z,27.28
2022-08-03T14:38:10.975Z,27.31
2022-08-03T14:40:38.820Z,26.91
2022-08-03T14:43:06.502Z,26.39
2022-08-03T14:45:34.149Z,26.43
2022-08-03T14:50:33.073Z,26.88
2022-08-03T14:50:52.114Z,26.73
2022-08-03T14:53:20.144Z,25.46
2022-08-03T14:55:50.595Z,24.89
2022-08-03T14:58:22.634Z,24.61
2022-08-03T15:00:51.411Z,24.56
2022-08-03T15:03:22.590Z,24.18
2022-08-03T15:05:50.381Z,23.13
2022-08-03T15:08:18.148Z,22.68
2022-08-03T15:10:46.608Z,22.59
2022-08-03T15:13:18.829Z,21.71
2022-08-03T15:15:47.380Z,20.69
2022-08-03T15:18:14.933Z,19.89
2022-08-03T15:20:45.388Z,20.05
2022-08-03T15:23:14.749Z,19.38
2022-08-03T15:26:03.596Z,18.97
2022-08-03T15:28:33.034Z,17.88
2022-08-03T15:31:01.112Z,17.44
2022-08-03T15:33:29.227Z,16.79
2022-08-03T15:35:57.079Z,16.12
2022-08-03T15:38:25.952Z,15.55
2022-08-03T15:40:54.765Z,15.64
2022-08-03T15:43:23.279Z,15.37
2022-08-03T15:46:19.189Z,15.84
2022-08-03T15:48:39.155Z,16.77
2022-08-03T15:51:07.169Z,17.51
2022-08-03T15:53:34.859Z,18.07
2022-08-03T15:56:09.683Z,18.47
2022-08-03T15:59:04.117Z,19.41
2022-08-03T16:01:27.359Z,20.12
2022-08-03T16:03:54.987Z,20.28
2022-08-03T16:06:29.526Z,20.64
2022-08-03T16:09:03.062Z,21.21
2022-08-03T16:11:30.730Z,22.21
2022-08-03T16:14:12.836Z,22.99
2022-08-03T16:16:46.071Z,23.00
2022-08-03T16:19:14.649Z,23.02
2022-08-03T16:21:48.885Z,23.09
2022-08-03T16:24:25.872Z,23.58
2022-08-03T16:26:55.832Z,24.52
2022-08-03T16:29:24.155Z,25.18
2022-08-03T16:31:52.645Z,25.59
2022-08-03T16:34:23.475Z,26.10
2022-08-03T16:36:54.292Z,26.60
2022-08-03T16:39:22.627Z,27.44
2022-08-03T16:41:53.575Z,27.32
2022-08-03T16:44:32.761Z,27.15
2022-08-03T16:47:02.278Z,26.88
2022-08-03T16:49:55.209Z,27.27
2022-08-03T16:52:18.240Z,27.34
2022-08-03T16:54:52.726Z,27.42
2022-08-03T16:57:59.408Z,27.49
2022-08-03T17:00:34.041Z,28.45
2022-08-03T17:03:04.083Z,28.45
2022-08-03T17:05:47.460Z,28.12
2022-08-03T17:08:16.356Z,28.65
2022-08-03T17:10:46.641Z,28.57
2022-08-03T17:13:21.523Z,28.86
2022-08-03T17:15:58.344Z,28.84
2022-08-03T17:18:33.949Z,28.93
2022-08-03T17:21:05.124Z,28.98
2022-08-03T17:23:43.898Z,29.24
2022-08-03T17:26:21.038Z,29.19
2022-08-03T17:28:57.533Z,29.83
2022-08-03T17:31:31.619Z,30.29
2022-08-03T17:34:02.132Z,30.81
2022-08-03T17:37:02.145Z,30.95
2022-08-03T17:39:41.810Z,31.31
2022-08-03T17:42:31.631Z,31.39
2022-08-03T17:45:02.081Z,31.90
2022-08-03T17:47:41.973Z,32.27
2022-08-03T17:50:25.787Z,32.42
2022-08-03T17:53:07.439Z,33.07
2022-08-03T17:55:57.481Z,33.29
2022-08-03T17:58:43.761Z,33.43
2022-08-03T18:02:00.295Z,33.91
2022-08-03T18:04:29.679Z,34.21
2022-08-03T18:07:11.881Z,34.59
2022-08-03T18:10:05.145Z,35.10
2022-08-03T18:12:45.520Z,35.35
2022-08-03T18:15:22.384Z,35.55
2022-08-03T18:17:55.108Z,35.27
2022-08-03T18:20:34.175Z,35.51
2022-08-03T18:23:07.042Z,35.90
2022-08-03T18:25:44.949Z,36.13
2022-08-03T18:28:18.698Z,36.53
2022-08-03T18:30:54.038Z,36.78
2022-08-03T18:34:19.922Z,36.83
2022-08-03T18:36:17.905Z,37.14
2022-08-03T18:38:49.151Z,36.85
2022-08-03T18:41:31.837Z,37.49
2022-08-03T18:44:06.701Z,37.85
2022-08-03T18:46:49.165Z,38.39
2022-08-03T18:49:40.292Z,38.22
2022-08-03T18:52:15.859Z,38.18
2022-08-03T18:55:04.525Z,38.40
2022-08-03T18:57:46.592Z,39.21
2022-08-03T19:00:24.950Z,39.81
2022-08-03T19:03:12.379Z,40.32
2022-08-03T19:06:03.041Z,39.93
2022-08-03T19:08:43.884Z,40.15
2022-08-03T19:11:22.475Z,39.97
2022-08-03T19:13:59.149Z,39.57
2022-08-03T19:16:34.487Z,39.45
2022-08-03T19:19:02.780Z,39.31
2022-08-03T19:21:33.766Z,39.54
2022-08-03T19:24:06.689Z,39.40
2022-08-03T19:26:38.843Z,39.44
2022-08-03T19:29:15.071Z,39.51
2022-08-03T19:31:58.898Z,39.11
2022-08-03T19:34:32.152Z,39.72
2022-08-03T19:37:11.623Z,40.06
2022-08-03T19:39:56.747Z,40.16
2022-08-03T19:42:33.638Z,40.39
2022-08-03T19:45:18.111Z,40.42
2022-08-03T19:48:15.155Z,40.64
2022-08-03T19:50:52.392Z,40.71
2022-08-03T19:53:35.422Z,40.86
2022-08-03T19:56:12.766Z,40.65
2022-08-03T19:58:54.581Z,40.71
2022-08-03T20:01:25.443Z,40.70
2022-08-03T20:03:57.053Z,40.68
2022-08-03T20:06:28.569Z,40.88
2022-08-03T20:09:06.020Z,40.60
2022-08-03T20:11:45.163Z,40.97
2022-08-03T20:14:26.451Z,40.79
2022-08-03T20:16:57.039Z,40.91
2022-08-03T20:19:32.697Z,40.80
2022-08-03T20:22:05.934Z,40.89
2022-08-03T20:24:52.738Z,40.90
2022-08-03T20:27:24.336Z,41.06
2022-08-03T20:30:07.582Z,41.17
2022-08-03T20:32:37.585Z,41.24
2022-08-03T20:35:09.835Z,41.15
2022-08-03T20:37:40.603Z,41.44
2022-08-03T20:40:18.885Z,41.23
2022-08-03T20:42:55.550Z,41.23
2022-08-03T20:45:59.734Z,41.27
2022-08-03T20:48:22.016Z,41.30
2022-08-03T20:50:55.809Z,41.59
2022-08-03T20:53:57.254Z,41.67
2022-08-03T20:56:15.455Z,41.74
2022-08-03T20:58:50.681Z,41.85
2022-08-03T21:01:27.927Z,41.96
2022-08-03T21:04:10.536Z,41.99
2022-08-03T21:06:45.481Z,42.12
2022-08-03T21:09:19.817Z,42.22
2022-08-03T21:11:51.755Z,42.34
2022-08-03T21:14:26.285Z,42.43
2022-08-03T21:16:56.291Z,42.55
2022-08-03T21:19:30.093Z,42.72
2022-08-03T21:21:58.910Z,42.80
2022-08-03T21:24:30.290Z,42.93
2022-08-03T21:27:01.098Z,42.95
2022-08-03T21:29:31.640Z,43.05
2022-08-03T21:32:01.264Z,43.12
2022-08-03T21:34:32.732Z,43.18
2022-08-03T21:37:01.292Z,43.29
2022-08-03T21:39:31.478Z,43.37
2022-08-03T21:42:00.483Z,43.54
2022-08-03T21:44:31.917Z,43.73
2022-08-03T21:47:02.436Z,43.76
2022-08-03T21:50:07.567Z,43.77
2022-08-03T21:52:25.564Z,43.93
2022-08-03T21:54:55.751Z,44.10
2022-08-03T21:57:28.260Z,44.07
2022-08-03T22:00:00.838Z,44.24
2022-08-03T22:02:31.513Z,44.40
2022-08-03T22:05:08.105Z,44.36
2022-08-03T22:07:46.692Z,44.60
2022-08-03T22:10:16.701Z,44.58
2022-08-03T22:12:45.397Z,44.87
2022-08-03T22:15:17.775Z,44.94
2022-08-03T22:17:54.795Z,45.09
2022-08-03T22:20:26.132Z,45.29
2022-08-03T22:23:00.999Z,45.32
2022-08-03T22:25:39.947Z,45.46
2022-08-03T22:28:10.927Z,45.60
2022-08-03T22:30:40.232Z,45.50
2022-08-03T22:33:11.908Z,45.97
2022-08-03T22:35:48.055Z,45.94
2022-08-03T22:38:18.285Z,46.12
2022-08-03T22:40:52.198Z,46.54
2022-08-03T22:43:24.779Z,47.48
2022-08-03T22:46:10.477Z,48.10
2022-08-03T22:48:44.361Z,48.63
2022-08-03T22:51:15.565Z,48.68
2022-08-03T22:53:46.099Z,48.79
2022-08-03T22:56:17.539Z,48.97
2022-08-03T22:58:47.281Z,49.17
2022-08-03T23:01:20.200Z,48.97
2022-08-03T23:04:08.078Z,49.01
2022-08-03T23:06:47.919Z,49.24
2022-08-03T23:09:20.509Z,49.47
2022-08-03T23:11:50.373Z,49.27
2022-08-03T23:14:21.681Z,49.54
2022-08-03T23:16:54.726Z,49.37
2022-08-03T23:19:27.569Z,49.69
2022-08-03T23:22:02.571Z,50.00
2022-08-03T23:24:37.453Z,50.10
2022-08-03T23:27:08.973Z,49.92
2022-08-03T23:29:44.893Z,50.25
2022-08-03T23:32:15.086Z,50.14
2022-08-03T23:35:06.722Z,50.32
2022-08-03T23:38:21.431Z,50.47
2022-08-03T23:40:34.361Z,50.72
2022-08-03T23:43:06.146Z,51.21
2022-08-03T23:45:39.310Z,51.27
2022-08-03T23:48:11.782Z,51.32
2022-08-03T23:50:58.843Z,51.26
2022-08-03T23:53:33.650Z,51.45
2022-08-03T23:56:23.016Z,51.37
2022-08-03T23:59:06.966Z,51.22
